sensor_id;sensor_type;location;lat;lon;timestamp;P1;durP1;ratioP1;P2;durP2;ratioP2
18228;SDS011;9239;50.932;3.142;2023-02-28T00:01:32;6.83;;;6.17;;
18228;SDS011;9239;50.932;3.142;2023-02-28T00:04:00;8.20;;;6.33;;
18228;SDS011;9239;50.932;3.142;2023-02-28T00:06:28;8.90;;;5.73;;
18228;SDS011;9239;50.932;3.142;2023-02-28T00:08:55;7.43;;;6.33;;
18228;SDS011;9239;50.932;3.142;2023-02-28T00:11:22;6.57;;;5.97;;
18228;SDS011;9239;50.932;3.142;2023-02-28T00:13:49;8.33;;;6.90;;
18228;SDS011;9239;50.932;3.142;2023-02-28T00:16:16;7.97;;;7.20;;
18228;SDS011;9239;50.932;3.142;2023-02-28T00:18:44;6.50;;;5.90;;
18228;SDS011;9239;50.932;3.142;2023-02-28T00:21:14;7.40;;;6.80;;
18228;SDS011;9239;50.932;3.142;2023-02-28T00:23:40;9.07;;;6.47;;
18228;SDS011;9239;50.932;3.142;2023-02-28T00:26:07;7.63;;;6.93;;
18228;SDS011;9239;50.932;3.142;2023-02-28T00:28:34;7.73;;;6.53;;
18228;SDS011;9239;50.932;3.142;2023-02-28T00:31:01;10.27;;;7.10;;
18228;SDS011;9239;50.932;3.142;2023-02-28T00:33:28;7.07;;;6.33;;
18228;SDS011;9239;50.932;3.142;2023-02-28T00:36:02;7.33;;;6.63;;
18228;SDS011;9239;50.932;3.142;2023-02-28T00:38:32;8.20;;;7.50;;
18228;SDS011;9239;50.932;3.142;2023-02-28T00:40:59;7.93;;;7.17;;
18228;SDS011;9239;50.932;3.142;2023-02-28T00:43:29;10.30;;;6.90;;
18228;SDS011;9239;50.932;3.142;2023-02-28T00:45:57;7.47;;;6.73;;
18228;SDS011;9239;50.932;3.142;2023-02-28T00:48:24;7.23;;;6.53;;
18228;SDS011;9239;50.932;3.142;2023-02-28T00:50:51;8.50;;;6.13;;
18228;SDS011;9239;50.932;3.142;2023-02-28T00:53:17;7.63;;;6.93;;
18228;SDS011;9239;50.932;3.142;2023-02-28T00:55:46;8.50;;;7.47;;
18228;SDS011;9239;50.932;3.142;2023-02-28T00:58:12;7.63;;;6.43;;
18228;SDS011;9239;50.932;3.142;2023-02-28T01:00:39;7.70;;;7.07;;
18228;SDS011;9239;50.932;3.142;2023-02-28T01:03:06;7.73;;;7.13;;
18228;SDS011;9239;50.932;3.142;2023-02-28T01:05:33;8.73;;;6.50;;
18228;SDS011;9239;50.932;3.142;2023-02-28T01:08:04;7.40;;;6.70;;
18228;SDS011;9239;50.932;3.142;2023-02-28T01:10:31;9.70;;;6.60;;
18228;SDS011;9239;50.932;3.142;2023-02-28T01:12:59;9.17;;;7.70;;
18228;SDS011;9239;50.932;3.142;2023-02-28T01:15:26;7.57;;;6.87;;
18228;SDS011;9239;50.932;3.142;2023-02-28T01:17:53;8.23;;;6.90;;
18228;SDS011;9239;50.932;3.142;2023-02-28T01:20:20;8.13;;;6.83;;
18228;SDS011;9239;50.932;3.142;2023-02-28T01:22:47;7.70;;;7.00;;
18228;SDS011;9239;50.932;3.142;2023-02-28T01:25:14;8.33;;;7.40;;
18228;SDS011;9239;50.932;3.142;2023-02-28T01:27:40;6.97;;;6.27;;
18228;SDS011;9239;50.932;3.142;2023-02-28T01:30:09;8.00;;;7.20;;
18228;SDS011;9239;50.932;3.142;2023-02-28T01:32:37;7.63;;;6.87;;
18228;SDS011;9239;50.932;3.142;2023-02-28T01:35:04;11.83;;;7.83;;
18228;SDS011;9239;50.932;3.142;2023-02-28T01:37:31;7.50;;;6.80;;
18228;SDS011;9239;50.932;3.142;2023-02-28T01:39:58;7.47;;;6.77;;
18228;SDS011;9239;50.932;3.142;2023-02-28T01:42:25;8.60;;;7.73;;
18228;SDS011;9239;50.932;3.142;2023-02-28T01:45:00;7.40;;;6.70;;
18228;SDS011;9239;50.932;3.142;2023-02-28T01:47:35;8.63;;;7.10;;
18228;SDS011;9239;50.932;3.142;2023-02-28T01:50:06;12.17;;;7.80;;
18228;SDS011;9239;50.932;3.142;2023-02-28T01:52:38;9.97;;;7.90;;
18228;SDS011;9239;50.932;3.142;2023-02-28T01:55:05;9.43;;;6.70;;
18228;SDS011;9239;50.932;3.142;2023-02-28T01:57:35;8.37;;;7.30;;
18228;SDS011;9239;50.932;3.142;2023-02-28T02:00:06;9.93;;;8.77;;
18228;SDS011;9239;50.932;3.142;2023-02-28T02:02:36;8.97;;;7.47;;
18228;SDS011;9239;50.932;3.142;2023-02-28T02:05:04;8.77;;;7.77;;
18228;SDS011;9239;50.932;3.142;2023-02-28T02:07:33;9.53;;;7.60;;
18228;SDS011;9239;50.932;3.142;2023-02-28T02:10:04;9.73;;;8.73;;
18228;SDS011;9239;50.932;3.142;2023-02-28T02:12:38;11.47;;;8.20;;
18228;SDS011;9239;50.932;3.142;2023-02-28T02:15:22;9.97;;;8.77;;
18228;SDS011;9239;50.932;3.142;2023-02-28T02:17:57;11.10;;;8.10;;
18228;SDS011;9239;50.932;3.142;2023-02-28T02:23:27;11.10;;;8.33;;
18228;SDS011;9239;50.932;3.142;2023-02-28T02:26:22;10.70;;;8.70;;
18228;SDS011;9239;50.932;3.142;2023-02-28T02:29:14;10.93;;;9.40;;
18228;SDS011;9239;50.932;3.142;2023-02-28T02:32:14;11.67;;;8.37;;
18228;SDS011;9239;50.932;3.142;2023-02-28T02:35:05;11.27;;;8.97;;
18228;SDS011;9239;50.932;3.142;2023-02-28T02:37:40;12.27;;;8.40;;
18228;SDS011;9239;50.932;3.142;2023-02-28T02:40:14;11.67;;;8.33;;
18228;SDS011;9239;50.932;3.142;2023-02-28T02:42:46;10.70;;;8.77;;
18228;SDS011;9239;50.932;3.142;2023-02-28T02:45:19;9.27;;;7.93;;
18228;SDS011;9239;50.932;3.142;2023-02-28T02:47:52;10.03;;;8.17;;
18228;SDS011;9239;50.932;3.142;2023-02-28T02:50:24;10.47;;;8.50;;
18228;SDS011;9239;50.932;3.142;2023-02-28T02:52:55;11.70;;;9.17;;
18228;SDS011;9239;50.932;3.142;2023-02-28T02:55:26;15.37;;;8.57;;
18228;SDS011;9239;50.932;3.142;2023-02-28T02:57:57;13.17;;;9.50;;
18228;SDS011;9239;50.932;3.142;2023-02-28T03:00:29;11.83;;;9.87;;
18228;SDS011;9239;50.932;3.142;2023-02-28T03:02:59;12.20;;;9.17;;
18228;SDS011;9239;50.932;3.142;2023-02-28T03:05:30;11.87;;;9.60;;
18228;SDS011;9239;50.932;3.142;2023-02-28T03:08:03;11.03;;;8.07;;
18228;SDS011;9239;50.932;3.142;2023-02-28T03:10:35;9.87;;;8.90;;
18228;SDS011;9239;50.932;3.142;2023-02-28T03:19:02;9.10;;;8.20;;
18228;SDS011;9239;50.932;3.142;2023-02-28T03:21:54;10.60;;;8.33;;
18228;SDS011;9239;50.932;3.142;2023-02-28T03:24:31;9.43;;;8.43;;
18228;SDS011;9239;50.932;3.142;2023-02-28T03:27:07;9.27;;;8.37;;
18228;SDS011;9239;50.932;3.142;2023-02-28T03:29:38;12.93;;;8.57;;
18228;SDS011;9239;50.932;3.142;2023-02-28T03:32:12;9.80;;;8.47;;
18228;SDS011;9239;50.932;3.142;2023-02-28T03:34:47;9.50;;;8.50;;
18228;SDS011;9239;50.932;3.142;2023-02-28T03:37:20;9.80;;;8.80;;
18228;SDS011;9239;50.932;3.142;2023-02-28T03:39:51;9.80;;;8.80;;
18228;SDS011;9239;50.932;3.142;2023-02-28T03:42:22;9.50;;;8.60;;
18228;SDS011;9239;50.932;3.142;2023-02-28T03:44:53;10.93;;;9.93;;
18228;SDS011;9239;50.932;3.142;2023-02-28T03:47:23;12.17;;;9.80;;
18228;SDS011;9239;50.932;3.142;2023-02-28T03:49:53;13.00;;;10.37;;
18228;SDS011;9239;50.932;3.142;2023-02-28T03:52:27;16.03;;;11.43;;
18228;SDS011;9239;50.932;3.142;2023-02-28T03:54:58;13.73;;;11.50;;
18228;SDS011;9239;50.932;3.142;2023-02-28T03:57:33;11.80;;;10.30;;
18228;SDS011;9239;50.932;3.142;2023-02-28T04:00:05;12.37;;;11.23;;
18228;SDS011;9239;50.932;3.142;2023-02-28T04:02:36;11.77;;;10.57;;
18228;SDS011;9239;50.932;3.142;2023-02-28T04:05:03;12.27;;;10.60;;
18228;SDS011;9239;50.932;3.142;2023-02-28T04:07:32;12.70;;;10.70;;
18228;SDS011;9239;50.932;3.142;2023-02-28T04:09:59;13.53;;;10.17;;
18228;SDS011;9239;50.932;3.142;2023-02-28T04:12:26;11.93;;;10.77;;
18228;SDS011;9239;50.932;3.142;2023-02-28T04:14:52;12.10;;;10.83;;
18228;SDS011;9239;50.932;3.142;2023-02-28T04:17:19;12.67;;;11.37;;
18228;SDS011;9239;50.932;3.142;2023-02-28T04:19:46;18.03;;;11.00;;
18228;SDS011;9239;50.932;3.142;2023-02-28T04:22:13;15.00;;;11.63;;
18228;SDS011;9239;50.932;3.142;2023-02-28T04:24:43;11.77;;;10.70;;
18228;SDS011;9239;50.932;3.142;2023-02-28T04:27:10;12.83;;;10.83;;
18228;SDS011;9239;50.932;3.142;2023-02-28T04:29:37;13.07;;;10.83;;
18228;SDS011;9239;50.932;3.142;2023-02-28T04:32:04;12.83;;;11.20;;
18228;SDS011;9239;50.932;3.142;2023-02-28T04:34:31;13.13;;;11.10;;
18228;SDS011;9239;50.932;3.142;2023-02-28T04:36:58;14.03;;;10.20;;
18228;SDS011;9239;50.932;3.142;2023-02-28T04:39:26;12.00;;;10.73;;
18228;SDS011;9239;50.932;3.142;2023-02-28T04:41:54;12.30;;;10.53;;
18228;SDS011;9239;50.932;3.142;2023-02-28T04:44:21;11.50;;;10.33;;
18228;SDS011;9239;50.932;3.142;2023-02-28T04:46:49;15.43;;;10.97;;
18228;SDS011;9239;50.932;3.142;2023-02-28T04:49:16;13.13;;;11.23;;
18228;SDS011;9239;50.932;3.142;2023-02-28T04:51:43;11.17;;;10.07;;
18228;SDS011;9239;50.932;3.142;2023-02-28T04:54:09;12.23;;;10.43;;
18228;SDS011;9239;50.932;3.142;2023-02-28T04:56:36;15.40;;;10.43;;
18228;SDS011;9239;50.932;3.142;2023-02-28T04:59:04;12.63;;;10.47;;
18228;SDS011;9239;50.932;3.142;2023-02-28T05:01:32;12.10;;;10.77;;
18228;SDS011;9239;50.932;3.142;2023-02-28T05:04:02;11.53;;;10.10;;
18228;SDS011;9239;50.932;3.142;2023-02-28T05:06:31;12.10;;;10.23;;
18228;SDS011;9239;50.932;3.142;2023-02-28T05:08:58;12.20;;;10.50;;
18228;SDS011;9239;50.932;3.142;2023-02-28T05:11:27;12.20;;;10.20;;
18228;SDS011;9239;50.932;3.142;2023-02-28T05:13:59;12.83;;;9.90;;
18228;SDS011;9239;50.932;3.142;2023-02-28T05:16:28;10.63;;;9.53;;
18228;SDS011;9239;50.932;3.142;2023-02-28T05:18:54;10.63;;;9.50;;
18228;SDS011;9239;50.932;3.142;2023-02-28T05:21:26;10.93;;;9.80;;
18228;SDS011;9239;50.932;3.142;2023-02-28T05:23:55;11.37;;;9.97;;
18228;SDS011;9239;50.932;3.142;2023-02-28T05:26:22;11.83;;;9.60;;
18228;SDS011;9239;50.932;3.142;2023-02-28T05:28:50;10.27;;;9.03;;
18228;SDS011;9239;50.932;3.142;2023-02-28T05:31:16;11.67;;;9.83;;
18228;SDS011;9239;50.932;3.142;2023-02-28T05:33:45;12.77;;;9.43;;
18228;SDS011;9239;50.932;3.142;2023-02-28T05:36:12;13.00;;;9.80;;
18228;SDS011;9239;50.932;3.142;2023-02-28T05:38:39;12.63;;;10.77;;
18228;SDS011;9239;50.932;3.142;2023-02-28T05:41:06;14.20;;;10.53;;
18228;SDS011;9239;50.932;3.142;2023-02-28T05:43:34;13.53;;;10.80;;
18228;SDS011;9239;50.932;3.142;2023-02-28T05:46:02;14.90;;;9.50;;
18228;SDS011;9239;50.932;3.142;2023-02-28T05:48:30;13.20;;;10.00;;
18228;SDS011;9239;50.932;3.142;2023-02-28T05:50:59;12.67;;;9.63;;
18228;SDS011;9239;50.932;3.142;2023-02-28T05:53:26;11.33;;;9.53;;
18228;SDS011;9239;50.932;3.142;2023-02-28T05:55:52;10.30;;;9.30;;
18228;SDS011;9239;50.932;3.142;2023-02-28T05:58:19;10.40;;;9.23;;
18228;SDS011;9239;50.932;3.142;2023-02-28T06:00:46;13.53;;;9.77;;
18228;SDS011;9239;50.932;3.142;2023-02-28T06:03:14;12.63;;;9.70;;
18228;SDS011;9239;50.932;3.142;2023-02-28T06:05:41;12.63;;;9.77;;
18228;SDS011;9239;50.932;3.142;2023-02-28T06:08:09;13.90;;;10.37;;
18228;SDS011;9239;50.932;3.142;2023-02-28T06:10:36;11.23;;;9.77;;
18228;SDS011;9239;50.932;3.142;2023-02-28T06:13:03;11.80;;;8.67;;
18228;SDS011;9239;50.932;3.142;2023-02-28T06:15:30;14.30;;;10.33;;
18228;SDS011;9239;50.932;3.142;2023-02-28T06:17:58;10.87;;;8.77;;
18228;SDS011;9239;50.932;3.142;2023-02-28T06:20:25;10.53;;;9.13;;
18228;SDS011;9239;50.932;3.142;2023-02-28T06:22:54;11.63;;;9.87;;
18228;SDS011;9239;50.932;3.142;2023-02-28T06:25:24;13.73;;;10.33;;
18228;SDS011;9239;50.932;3.142;2023-02-28T06:27:51;12.90;;;9.60;;
18228;SDS011;9239;50.932;3.142;2023-02-28T06:30:18;14.03;;;10.40;;
18228;SDS011;9239;50.932;3.142;2023-02-28T06:32:48;12.57;;;9.90;;
18228;SDS011;9239;50.932;3.142;2023-02-28T06:35:15;11.57;;;9.60;;
18228;SDS011;9239;50.932;3.142;2023-02-28T06:37:42;11.13;;;10.03;;
18228;SDS011;9239;50.932;3.142;2023-02-28T06:40:10;13.43;;;9.20;;
18228;SDS011;9239;50.932;3.142;2023-02-28T06:42:39;10.70;;;9.30;;
18228;SDS011;9239;50.932;3.142;2023-02-28T06:45:06;9.33;;;8.43;;
18228;SDS011;9239;50.932;3.142;2023-02-28T06:47:35;9.33;;;8.43;;
18228;SDS011;9239;50.932;3.142;2023-02-28T06:50:02;11.20;;;8.63;;
18228;SDS011;9239;50.932;3.142;2023-02-28T06:52:30;10.20;;;8.27;;
18228;SDS011;9239;50.932;3.142;2023-02-28T06:54:57;10.10;;;8.93;;
18228;SDS011;9239;50.932;3.142;2023-02-28T06:57:27;9.07;;;8.17;;
18228;SDS011;9239;50.932;3.142;2023-02-28T06:59:57;9.67;;;8.67;;
18228;SDS011;9239;50.932;3.142;2023-02-28T07:02:25;9.40;;;8.50;;
18228;SDS011;9239;50.932;3.142;2023-02-28T07:04:51;11.63;;;8.40;;
18228;SDS011;9239;50.932;3.142;2023-02-28T07:07:19;9.13;;;8.00;;
18228;SDS011;9239;50.932;3.142;2023-02-28T07:09:46;10.63;;;8.10;;
18228;SDS011;9239;50.932;3.142;2023-02-28T07:12:12;7.87;;;6.67;;
18228;SDS011;9239;50.932;3.142;2023-02-28T07:14:39;7.30;;;6.60;;
18228;SDS011;9239;50.932;3.142;2023-02-28T07:17:08;7.63;;;6.67;;
18228;SDS011;9239;50.932;3.142;2023-02-28T07:19:36;8.07;;;6.93;;
18228;SDS011;9239;50.932;3.142;2023-02-28T07:22:03;6.87;;;6.27;;
18228;SDS011;9239;50.932;3.142;2023-02-28T07:24:30;10.00;;;5.97;;
18228;SDS011;9239;50.932;3.142;2023-02-28T07:26:57;6.73;;;6.13;;
18228;SDS011;9239;50.932;3.142;2023-02-28T07:29:25;8.37;;;6.73;;
18228;SDS011;9239;50.932;3.142;2023-02-28T07:31:52;8.10;;;7.17;;
18228;SDS011;9239;50.932;3.142;2023-02-28T07:34:21;9.80;;;7.77;;
18228;SDS011;9239;50.932;3.142;2023-02-28T07:36:48;10.20;;;8.47;;
18228;SDS011;9239;50.932;3.142;2023-02-28T07:39:18;10.43;;;7.73;;
18228;SDS011;9239;50.932;3.142;2023-02-28T07:41:45;11.27;;;8.00;;
18228;SDS011;9239;50.932;3.142;2023-02-28T07:44:12;11.00;;;8.10;;
18228;SDS011;9239;50.932;3.142;2023-02-28T07:46:39;10.63;;;8.90;;
18228;SDS011;9239;50.932;3.142;2023-02-28T07:49:06;11.33;;;9.20;;
18228;SDS011;9239;50.932;3.142;2023-02-28T07:51:34;11.67;;;8.57;;
18228;SDS011;9239;50.932;3.142;2023-02-28T07:54:01;10.57;;;8.03;;
18228;SDS011;9239;50.932;3.142;2023-02-28T07:56:28;13.50;;;8.77;;
18228;SDS011;9239;50.932;3.142;2023-02-28T07:58:55;13.40;;;9.13;;
18228;SDS011;9239;50.932;3.142;2023-02-28T08:01:22;9.23;;;7.83;;
18228;SDS011;9239;50.932;3.142;2023-02-28T08:03:48;11.60;;;8.17;;
18228;SDS011;9239;50.932;3.142;2023-02-28T08:06:16;8.67;;;7.87;;
18228;SDS011;9239;50.932;3.142;2023-02-28T08:08:46;8.17;;;6.90;;
18228;SDS011;9239;50.932;3.142;2023-02-28T08:11:13;7.87;;;7.07;;
18228;SDS011;9239;50.932;3.142;2023-02-28T08:13:41;10.67;;;7.37;;
18228;SDS011;9239;50.932;3.142;2023-02-28T08:16:09;9.77;;;7.80;;
18228;SDS011;9239;50.932;3.142;2023-02-28T08:18:36;9.00;;;7.63;;
18228;SDS011;9239;50.932;3.142;2023-02-28T08:21:06;7.70;;;6.30;;
18228;SDS011;9239;50.932;3.142;2023-02-28T08:23:34;9.50;;;6.47;;
18228;SDS011;9239;50.932;3.142;2023-02-28T08:26:02;6.40;;;5.80;;
18228;SDS011;9239;50.932;3.142;2023-02-28T08:28:29;5.83;;;5.20;;
18228;SDS011;9239;50.932;3.142;2023-02-28T08:30:57;6.27;;;5.23;;
18228;SDS011;9239;50.932;3.142;2023-02-28T08:33:24;6.07;;;5.40;;
18228;SDS011;9239;50.932;3.142;2023-02-28T08:35:53;8.37;;;5.27;;
18228;SDS011;9239;50.932;3.142;2023-02-28T08:38:20;5.37;;;4.87;;
18228;SDS011;9239;50.932;3.142;2023-02-28T08:40:47;5.03;;;3.83;;
18228;SDS011;9239;50.932;3.142;2023-02-28T08:43:16;5.33;;;3.63;;
18228;SDS011;9239;50.932;3.142;2023-02-28T08:45:42;4.33;;;3.57;;
18228;SDS011;9239;50.932;3.142;2023-02-28T08:48:09;4.20;;;3.70;;
18228;SDS011;9239;50.932;3.142;2023-02-28T08:50:36;4.13;;;3.60;;
18228;SDS011;9239;50.932;3.142;2023-02-28T08:53:03;3.80;;;3.43;;
18228;SDS011;9239;50.932;3.142;2023-02-28T08:55:30;6.17;;;4.23;;
18228;SDS011;9239;50.932;3.142;2023-02-28T08:57:57;3.80;;;3.23;;
18228;SDS011;9239;50.932;3.142;2023-02-28T09:00:25;3.83;;;3.33;;
18228;SDS011;9239;50.932;3.142;2023-02-28T09:02:52;3.70;;;3.30;;
18228;SDS011;9239;50.932;3.142;2023-02-28T09:05:19;4.23;;;3.30;;
18228;SDS011;9239;50.932;3.142;2023-02-28T09:07:46;4.40;;;3.93;;
18228;SDS011;9239;50.932;3.142;2023-02-28T09:10:13;4.00;;;3.67;;
18228;SDS011;9239;50.932;3.142;2023-02-28T09:12:40;4.47;;;3.60;;
18228;SDS011;9239;50.932;3.142;2023-02-28T09:15:07;4.10;;;3.53;;
18228;SDS011;9239;50.932;3.142;2023-02-28T09:17:36;6.63;;;3.60;;
18228;SDS011;9239;50.932;3.142;2023-02-28T09:20:03;3.03;;;2.60;;
18228;SDS011;9239;50.932;3.142;2023-02-28T09:22:31;4.90;;;3.30;;
18228;SDS011;9239;50.932;3.142;2023-02-28T09:24:58;4.80;;;2.90;;
18228;SDS011;9239;50.932;3.142;2023-02-28T09:27:24;2.83;;;2.57;;
18228;SDS011;9239;50.932;3.142;2023-02-28T09:29:51;6.30;;;3.30;;
18228;SDS011;9239;50.932;3.142;2023-02-28T09:32:18;4.20;;;2.87;;
18228;SDS011;9239;50.932;3.142;2023-02-28T09:34:46;3.83;;;3.07;;
18228;SDS011;9239;50.932;3.142;2023-02-28T09:37:13;3.57;;;3.10;;
18228;SDS011;9239;50.932;3.142;2023-02-28T09:39:40;4.80;;;3.47;;
18228;SDS011;9239;50.932;3.142;2023-02-28T09:42:11;4.53;;;3.20;;
18228;SDS011;9239;50.932;3.142;2023-02-28T09:44:47;4.43;;;3.60;;
18228;SDS011;9239;50.932;3.142;2023-02-28T09:47:17;4.07;;;3.40;;
18228;SDS011;9239;50.932;3.142;2023-02-28T09:49:58;5.37;;;3.00;;
18228;SDS011;9239;50.932;3.142;2023-02-28T09:52:28;4.10;;;3.40;;
18228;SDS011;9239;50.932;3.142;2023-02-28T09:54:59;3.97;;;3.43;;
18228;SDS011;9239;50.932;3.142;2023-02-28T09:57:42;5.63;;;3.27;;
18228;SDS011;9239;50.932;3.142;2023-02-28T10:00:12;5.17;;;3.43;;
18228;SDS011;9239;50.932;3.142;2023-02-28T10:02:56;3.13;;;2.80;;
18228;SDS011;9239;50.932;3.142;2023-02-28T10:05:38;4.07;;;3.00;;
18228;SDS011;9239;50.932;3.142;2023-02-28T10:08:11;4.17;;;3.10;;
18228;SDS011;9239;50.932;3.142;2023-02-28T10:10:41;4.00;;;3.57;;
18228;SDS011;9239;50.932;3.142;2023-02-28T10:13:15;5.67;;;3.57;;
18228;SDS011;9239;50.932;3.142;2023-02-28T10:15:50;6.00;;;3.10;;
18228;SDS011;9239;50.932;3.142;2023-02-28T10:18:21;3.50;;;3.10;;
18228;SDS011;9239;50.932;3.142;2023-02-28T10:20:52;3.90;;;3.10;;
18228;SDS011;9239;50.932;3.142;2023-02-28T10:23:22;3.53;;;3.23;;
18228;SDS011;9239;50.932;3.142;2023-02-28T10:25:53;5.30;;;3.40;;
18228;SDS011;9239;50.932;3.142;2023-02-28T10:28:24;3.37;;;2.90;;
18228;SDS011;9239;50.932;3.142;2023-02-28T10:30:53;3.70;;;3.20;;
18228;SDS011;9239;50.932;3.142;2023-02-28T10:33:22;8.07;;;3.63;;
18228;SDS011;9239;50.932;3.142;2023-02-28T10:35:52;4.13;;;3.50;;
18228;SDS011;9239;50.932;3.142;2023-02-28T10:38:20;3.57;;;3.27;;
18228;SDS011;9239;50.932;3.142;2023-02-28T10:40:48;4.27;;;3.43;;
18228;SDS011;9239;50.932;3.142;2023-02-28T10:43:19;6.03;;;3.47;;
18228;SDS011;9239;50.932;3.142;2023-02-28T10:45:53;4.73;;;3.63;;
18228;SDS011;9239;50.932;3.142;2023-02-28T10:48:29;5.23;;;3.47;;
18228;SDS011;9239;50.932;3.142;2023-02-28T10:51:04;4.03;;;3.07;;
18228;SDS011;9239;50.932;3.142;2023-02-28T10:53:33;3.97;;;3.47;;
18228;SDS011;9239;50.932;3.142;2023-02-28T10:56:03;3.73;;;3.10;;
18228;SDS011;9239;50.932;3.142;2023-02-28T10:58:32;5.03;;;3.77;;
18228;SDS011;9239;50.932;3.142;2023-02-28T11:01:13;5.00;;;3.07;;
18228;SDS011;9239;50.932;3.142;2023-02-28T11:03:42;4.03;;;3.40;;
18228;SDS011;9239;50.932;3.142;2023-02-28T11:06:13;7.23;;;5.43;;
18228;SDS011;9239;50.932;3.142;2023-02-28T11:08:43;4.23;;;3.47;;
18228;SDS011;9239;50.932;3.142;2023-02-28T11:11:15;6.37;;;3.93;;
18228;SDS011;9239;50.932;3.142;2023-02-28T11:13:43;5.47;;;3.63;;
18228;SDS011;9239;50.932;3.142;2023-02-28T11:16:12;7.37;;;3.80;;
18228;SDS011;9239;50.932;3.142;2023-02-28T11:18:43;3.80;;;3.50;;
18228;SDS011;9239;50.932;3.142;2023-02-28T11:21:17;6.43;;;3.80;;
18228;SDS011;9239;50.932;3.142;2023-02-28T11:23:47;8.20;;;3.83;;
18228;SDS011;9239;50.932;3.142;2023-02-28T11:29:05;8.23;;;3.73;;
18228;SDS011;9239;50.932;3.142;2023-02-28T11:31:37;3.90;;;3.43;;
18228;SDS011;9239;50.932;3.142;2023-02-28T11:34:10;3.17;;;2.77;;
18228;SDS011;9239;50.932;3.142;2023-02-28T11:36:52;3.70;;;2.97;;
18228;SDS011;9239;50.932;3.142;2023-02-28T11:39:21;3.73;;;3.43;;
18228;SDS011;9239;50.932;3.142;2023-02-28T11:44:39;4.53;;;3.30;;
18228;SDS011;9239;50.932;3.142;2023-02-28T11:47:21;4.17;;;3.53;;
18228;SDS011;9239;50.932;3.142;2023-02-28T11:50:02;4.27;;;3.10;;
18228;SDS011;9239;50.932;3.142;2023-02-28T11:52:42;3.57;;;3.20;;
18228;SDS011;9239;50.932;3.142;2023-02-28T11:55:16;2.70;;;2.50;;
18228;SDS011;9239;50.932;3.142;2023-02-28T11:57:57;3.43;;;2.83;;
18228;SDS011;9239;50.932;3.142;2023-02-28T12:00:38;3.40;;;2.50;;
18228;SDS011;9239;50.932;3.142;2023-02-28T12:03:26;3.80;;;3.20;;
18228;SDS011;9239;50.932;3.142;2023-02-28T12:06:01;4.80;;;3.53;;
18228;SDS011;9239;50.932;3.142;2023-02-28T12:08:46;3.13;;;2.73;;
18228;SDS011;9239;50.932;3.142;2023-02-28T12:11:29;3.07;;;2.73;;
18228;SDS011;9239;50.932;3.142;2023-02-28T12:14:17;4.73;;;3.10;;
18228;SDS011;9239;50.932;3.142;2023-02-28T12:17:20;4.23;;;3.17;;
18228;SDS011;9239;50.932;3.142;2023-02-28T12:19:56;3.13;;;2.83;;
18228;SDS011;9239;50.932;3.142;2023-02-28T12:22:32;2.77;;;2.37;;
18228;SDS011;9239;50.932;3.142;2023-02-28T12:25:16;2.80;;;2.60;;
18228;SDS011;9239;50.932;3.142;2023-02-28T12:28:06;3.73;;;2.50;;
18228;SDS011;9239;50.932;3.142;2023-02-28T12:30:37;3.53;;;2.77;;
18228;SDS011;9239;50.932;3.142;2023-02-28T12:33:10;3.33;;;3.03;;
18228;SDS011;9239;50.932;3.142;2023-02-28T12:35:41;3.03;;;2.67;;
18228;SDS011;9239;50.932;3.142;2023-02-28T12:38:14;4.40;;;3.53;;
18228;SDS011;9239;50.932;3.142;2023-02-28T12:40:47;2.90;;;2.50;;
18228;SDS011;9239;50.932;3.142;2023-02-28T12:43:16;3.20;;;2.90;;
18228;SDS011;9239;50.932;3.142;2023-02-28T12:45:46;4.53;;;3.00;;
18228;SDS011;9239;50.932;3.142;2023-02-28T12:48:18;2.73;;;2.50;;
18228;SDS011;9239;50.932;3.142;2023-02-28T12:50:50;5.50;;;3.10;;
18228;SDS011;9239;50.932;3.142;2023-02-28T12:53:18;2.90;;;2.70;;
18228;SDS011;9239;50.932;3.142;2023-02-28T12:55:57;3.70;;;2.80;;
18228;SDS011;9239;50.932;3.142;2023-02-28T12:58:34;3.20;;;2.90;;
18228;SDS011;9239;50.932;3.142;2023-02-28T13:01:18;4.73;;;3.37;;
18228;SDS011;9239;50.932;3.142;2023-02-28T13:07:30;4.27;;;2.77;;
18228;SDS011;9239;50.932;3.142;2023-02-28T13:10:12;4.03;;;3.20;;
18228;SDS011;9239;50.932;3.142;2023-02-28T13:12:48;3.77;;;2.83;;
18228;SDS011;9239;50.932;3.142;2023-02-28T13:15:17;3.60;;;3.30;;
18228;SDS011;9239;50.932;3.142;2023-02-28T13:17:49;4.73;;;3.30;;
18228;SDS011;9239;50.932;3.142;2023-02-28T13:20:19;3.27;;;2.97;;
18228;SDS011;9239;50.932;3.142;2023-02-28T13:22:48;6.90;;;3.30;;
18228;SDS011;9239;50.932;3.142;2023-02-28T13:31:30;3.17;;;2.87;;
18228;SDS011;9239;50.932;3.142;2023-02-28T13:36:42;4.00;;;3.00;;
18228;SDS011;9239;50.932;3.142;2023-02-28T13:45:21;3.30;;;3.00;;
18228;SDS011;9239;50.932;3.142;2023-02-28T13:47:54;3.57;;;3.27;;
18228;SDS011;9239;50.932;3.142;2023-02-28T13:50:29;4.07;;;3.23;;
18228;SDS011;9239;50.932;3.142;2023-02-28T13:53:18;5.00;;;3.10;;
18228;SDS011;9239;50.932;3.142;2023-02-28T13:56:10;5.10;;;4.30;;
18228;SDS011;9239;50.932;3.142;2023-02-28T13:58:53;3.80;;;3.40;;
18228;SDS011;9239;50.932;3.142;2023-02-28T14:04:33;3.60;;;3.30;;
18228;SDS011;9239;50.932;3.142;2023-02-28T14:07:16;3.90;;;3.30;;
18228;SDS011;9239;50.932;3.142;2023-02-28T14:09:46;5.07;;;3.20;;
18228;SDS011;9239;50.932;3.142;2023-02-28T14:18:22;3.40;;;3.10;;
18228;SDS011;9239;50.932;3.142;2023-02-28T14:20:54;4.87;;;3.13;;
18228;SDS011;9239;50.932;3.142;2023-02-28T14:23:31;4.50;;;3.20;;
18228;SDS011;9239;50.932;3.142;2023-02-28T14:26:07;2.77;;;2.57;;
18228;SDS011;9239;50.932;3.142;2023-02-28T14:28:56;3.47;;;2.60;;
18228;SDS011;9239;50.932;3.142;2023-02-28T14:31:40;4.80;;;2.33;;
18228;SDS011;9239;50.932;3.142;2023-02-28T14:34:23;2.37;;;2.10;;
18228;SDS011;9239;50.932;3.142;2023-02-28T14:37:00;3.03;;;2.40;;
18228;SDS011;9239;50.932;3.142;2023-02-28T14:39:29;2.63;;;2.40;;
18228;SDS011;9239;50.932;3.142;2023-02-28T14:41:57;4.70;;;3.03;;
18228;SDS011;9239;50.932;3.142;2023-02-28T14:44:28;3.07;;;2.77;;
18228;SDS011;9239;50.932;3.142;2023-02-28T14:46:56;3.33;;;3.07;;
18228;SDS011;9239;50.932;3.142;2023-02-28T14:49:26;3.53;;;2.50;;
18228;SDS011;9239;50.932;3.142;2023-02-28T14:52:03;2.87;;;2.40;;
18228;SDS011;9239;50.932;3.142;2023-02-28T14:54:34;3.07;;;2.50;;
18228;SDS011;9239;50.932;3.142;2023-02-28T14:57:03;3.17;;;2.97;;
18228;SDS011;9239;50.932;3.142;2023-02-28T14:59:31;3.00;;;2.80;;
18228;SDS011;9239;50.932;3.142;2023-02-28T15:02:18;4.00;;;2.50;;
18228;SDS011;9239;50.932;3.142;2023-02-28T15:04:53;4.40;;;3.10;;
18228;SDS011;9239;50.932;3.142;2023-02-28T15:07:26;2.90;;;2.63;;
18228;SDS011;9239;50.932;3.142;2023-02-28T15:10:09;9.13;;;2.97;;
18228;SDS011;9239;50.932;3.142;2023-02-28T15:12:39;2.90;;;2.60;;
18228;SDS011;9239;50.932;3.142;2023-02-28T15:15:13;2.57;;;2.37;;
18228;SDS011;9239;50.932;3.142;2023-02-28T15:17:42;2.60;;;2.40;;
18228;SDS011;9239;50.932;3.142;2023-02-28T15:20:12;2.70;;;2.30;;
18228;SDS011;9239;50.932;3.142;2023-02-28T15:22:42;3.30;;;2.33;;
18228;SDS011;9239;50.932;3.142;2023-02-28T15:25:11;3.57;;;2.10;;
18228;SDS011;9239;50.932;3.142;2023-02-28T15:27:46;2.67;;;2.40;;
18228;SDS011;9239;50.932;3.142;2023-02-28T15:30:17;3.37;;;2.70;;
18228;SDS011;9239;50.932;3.142;2023-02-28T15:33:01;3.67;;;2.60;;
18228;SDS011;9239;50.932;3.142;2023-02-28T15:35:34;2.90;;;2.60;;
18228;SDS011;9239;50.932;3.142;2023-02-28T15:38:03;3.87;;;2.70;;
18228;SDS011;9239;50.932;3.142;2023-02-28T15:40:40;2.40;;;2.20;;
18228;SDS011;9239;50.932;3.142;2023-02-28T15:43:13;2.60;;;2.03;;
18228;SDS011;9239;50.932;3.142;2023-02-28T15:45:44;3.10;;;2.47;;
18228;SDS011;9239;50.932;3.142;2023-02-28T15:48:16;4.50;;;2.87;;
18228;SDS011;9239;50.932;3.142;2023-02-28T15:50:46;3.47;;;2.60;;
18228;SDS011;9239;50.932;3.142;2023-02-28T15:53:18;3.63;;;3.20;;
18228;SDS011;9239;50.932;3.142;2023-02-28T15:55:52;3.30;;;3.00;;
18228;SDS011;9239;50.932;3.142;2023-02-28T15:58:21;3.47;;;3.10;;
18228;SDS011;9239;50.932;3.142;2023-02-28T16:01:00;4.13;;;2.80;;